createdAt,value
2017-07-24T00:00:36.509Z,89.6
2017-07-24T00:01:17.501Z,89.1
2017-07-24T00:01:58.486Z,89.2
2017-07-24T00:02:39.565Z,89.5
2017-07-24T00:03:20.553Z,88.9
2017-07-24T00:04:01.348Z,88.9
2017-07-24T00:04:42.142Z,89.4
2017-07-24T00:05:22.944Z,89.0
2017-07-24T00:06:04.128Z,89.1
2017-07-24T00:06:45.014Z,88.9
2017-07-24T00:07:25.826Z,88.5
2017-07-24T00:08:06.780Z,88.7
2017-07-24T00:08:48.080Z,88.7
2017-07-24T00:09:28.967Z,88.7
2017-07-24T00:10:09.755Z,88.7
2017-07-24T00:10:50.637Z,88.8
2017-07-24T00:11:31.540Z,88.7
2017-07-24T00:12:12.525Z,88.8
2017-07-24T00:12:53.407Z,88.7
2017-07-24T00:13:34.717Z,89.3
2017-07-24T00:14:15.707Z,88.5
2017-07-24T00:14:56.803Z,88.6
2017-07-24T00:15:37.600Z,88.6
2017-07-24T00:16:18.803Z,88.7
2017-07-24T00:16:59.693Z,88.8
2017-07-24T00:17:40.576Z,88.8
2017-07-24T00:18:21.462Z,88.8
2017-07-24T00:19:02.282Z,88.7
2017-07-24T00:19:43.172Z,88.3
2017-07-24T00:20:24.154Z,88.8
2017-07-24T00:21:04.946Z,88.6
2017-07-24T00:21:45.835Z,88.7
2017-07-24T00:22:26.831Z,88.6
2017-07-24T00:23:07.823Z,88.1
2017-07-24T00:23:48.804Z,88.1
2017-07-24T00:24:29.895Z,88.4
2017-07-24T00:25:10.972Z,88.2
2017-07-24T00:25:51.857Z,88.2
2017-07-24T00:26:32.848Z,88.3
2017-07-24T00:27:13.831Z,88.5
2017-07-24T00:27:54.833Z,88.2
2017-07-24T00:28:35.924Z,88.6
2017-07-24T00:29:16.726Z,88.3
2017-07-24T00:29:57.738Z,88.6
2017-07-24T00:30:38.624Z,88.7
2017-07-24T00:31:19.712Z,88.7
2017-07-24T00:32:00.906Z,88.2
2017-07-24T00:32:42.000Z,88.5
2017-07-24T00:33:22.979Z,88.8
2017-07-24T00:34:03.769Z,88.5
2017-07-24T00:34:44.782Z,88.3
2017-07-24T00:35:25.770Z,88.2
2017-07-24T00:36:06.957Z,88.4
2017-07-24T00:36:47.853Z,88.3
2017-07-24T00:37:28.739Z,88.2
2017-07-24T00:38:09.623Z,88.4
2017-07-24T00:38:50.613Z,88.7
2017-07-24T00:39:31.498Z,88.9
2017-07-24T00:40:12.383Z,88.3
2017-07-24T00:40:53.277Z,88.4
2017-07-24T00:41:34.062Z,88.2
2017-07-24T00:42:14.980Z,88.4
2017-07-24T00:42:55.994Z,88.4
2017-07-24T00:43:36.809Z,88.6
2017-07-24T00:44:17.689Z,88.3
2017-07-24T00:44:58.878Z,88.1
2017-07-24T00:45:39.965Z,87.9
2017-07-24T00:46:20.847Z,88.5
2017-07-24T00:47:01.737Z,88.1
2017-07-24T00:47:42.725Z,88.2
2017-07-24T00:48:23.721Z,88.4
2017-07-24T00:49:04.906Z,89.0
2017-07-24T00:49:45.795Z,88.2
2017-07-24T00:50:26.798Z,88.7
2017-07-24T00:51:08.082Z,88.4
2017-07-24T00:51:49.079Z,88.6
2017-07-24T00:52:29.966Z,88.8
2017-07-24T00:53:10.963Z,88.5
2017-07-24T00:53:51.946Z,88.2
2017-07-24T00:54:32.832Z,88.5
2017-07-24T00:55:14.125Z,88.3
2017-07-24T00:55:55.408Z,88.3
2017-07-24T00:56:36.406Z,88.1
2017-07-24T00:57:17.392Z,88.2
2017-07-24T00:57:58.288Z,88.7
2017-07-24T00:58:39.370Z,88.2
2017-07-24T00:59:20.263Z,88.6
2017-07-24T01:00:01.160Z,88.4
2017-07-24T01:00:42.157Z,88.2
2017-07-24T01:01:22.962Z,88.7
2017-07-24T01:02:03.862Z,88.5
2017-07-24T01:02:44.851Z,89.2
2017-07-24T01:03:25.940Z,88.8
2017-07-24T01:04:06.926Z,88.8
2017-07-24T01:04:49.765Z,88.7
2017-07-24T01:05:30.654Z,88.8
2017-07-24T01:06:11.857Z,88.9
2017-07-24T01:06:52.651Z,88.7
2017-07-24T01:07:33.648Z,89.5
2017-07-24T01:08:14.449Z,89.3
2017-07-24T01:08:55.440Z,89.3
2017-07-24T01:09:36.321Z,89.3
2017-07-24T01:10:17.429Z,89.4
2017-07-24T01:10:58.414Z,89.1
2017-07-24T01:11:39.793Z,89.6
2017-07-24T01:12:20.900Z,89.4
2017-07-24T01:13:02.089Z,89.3
2017-07-24T01:13:43.268Z,89.3
2017-07-24T01:14:24.057Z,89.4
2017-07-24T01:15:05.348Z,88.9
2017-07-24T01:15:46.234Z,89.1
2017-07-24T01:16:27.327Z,89.5
2017-07-24T01:17:08.318Z,88.9
2017-07-24T01:17:49.093Z,89.4
2017-07-24T01:18:30.105Z,89.5
2017-07-24T01:19:11.174Z,89.6
2017-07-24T01:19:52.263Z,89.3
2017-07-24T01:20:33.156Z,89.4
2017-07-24T01:21:14.147Z,88.9
2017-07-24T01:21:55.927Z,89.1
2017-07-24T01:22:36.831Z,89.3
2017-07-24T01:23:17.816Z,89.4
2017-07-24T01:23:58.907Z,89.1
2017-07-24T01:24:39.902Z,89.3
2017-07-24T01:25:20.995Z,89.3
2017-07-24T01:26:02.193Z,89.3
2017-07-24T01:26:43.089Z,90.1
2017-07-24T01:27:23.980Z,89.5
2017-07-24T01:28:04.878Z,89.7
2017-07-24T01:28:45.771Z,89.6
2017-07-24T01:29:26.660Z,89.3
2017-07-24T01:30:07.567Z,89.6
2017-07-24T01:30:48.965Z,89.7
2017-07-24T01:31:29.860Z,89.1
2017-07-24T01:32:10.958Z,89.5
2017-07-24T01:32:51.956Z,89.4
2017-07-24T01:33:32.952Z,89.3
2017-07-24T01:34:13.936Z,89.3
2017-07-24T01:34:54.938Z,89.3
2017-07-24T01:35:36.435Z,89.4
2017-07-24T01:36:17.635Z,89.7
2017-07-24T01:36:58.723Z,89.8
2017-07-24T01:37:39.617Z,89.7
2017-07-24T01:38:20.613Z,89.4
2017-07-24T01:39:01.706Z,89.3
2017-07-24T01:39:42.914Z,89.4
2017-07-24T01:40:23.698Z,89.5
2017-07-24T01:41:04.700Z,89.5
2017-07-24T01:41:45.594Z,89.2
2017-07-24T01:42:26.911Z,89.8
2017-07-24T01:43:07.699Z,89.5
2017-07-24T01:43:48.599Z,89.6
2017-07-24T01:44:29.488Z,89.4
2017-07-24T01:45:10.185Z,90.1
2017-07-24T01:45:51.278Z,89.4
2017-07-24T01:46:32.294Z,89.3
2017-07-24T01:47:13.277Z,89.8
2017-07-24T01:47:54.265Z,89.2
2017-07-24T01:48:35.264Z,89.6
2017-07-24T01:49:15.976Z,89.8
2017-07-24T01:49:57.049Z,89.5
2017-07-24T01:50:38.142Z,89.1
2017-07-24T01:51:19.034Z,89.5
2017-07-24T01:52:00.021Z,89.3
2017-07-24T01:52:41.010Z,89.8
2017-07-24T01:53:21.901Z,89.8
2017-07-24T01:54:02.992Z,89.9
2017-07-24T01:54:44.186Z,90.5
2017-07-24T01:55:25.080Z,89.8
2017-07-24T01:56:05.977Z,89.9
2017-07-24T01:56:47.074Z,89.5
2017-07-24T01:57:27.964Z,89.2
2017-07-24T01:58:08.853Z,89.3
2017-07-24T01:58:50.058Z,89.3
2017-07-24T01:59:30.846Z,89.3
2017-07-24T02:00:11.733Z,89.4
2017-07-24T02:00:52.828Z,89.3
2017-07-24T02:01:33.728Z,89.2
2017-07-24T02:02:14.717Z,89.1
2017-07-24T02:02:55.814Z,89.8
2017-07-24T02:03:36.712Z,89.3
2017-07-24T02:04:17.707Z,89.4
2017-07-24T02:04:58.913Z,89.5
2017-07-24T02:05:40.103Z,89.2
2017-07-24T02:06:21.002Z,89.3
2017-07-24T02:07:01.796Z,89.1
2017-07-24T02:07:42.786Z,89.1
2017-07-24T02:08:23.686Z,89.8
2017-07-24T02:09:04.686Z,89.4
2017-07-24T02:09:45.678Z,89.3
2017-07-24T02:10:26.682Z,89.5
2017-07-24T02:11:07.572Z,89.9
2017-07-24T02:11:48.466Z,89.9
2017-07-24T02:12:29.558Z,89.4
2017-07-24T02:13:10.455Z,89.5
2017-07-24T02:13:51.443Z,89.9
2017-07-24T02:14:32.643Z,89.9
2017-07-24T02:15:13.528Z,89.6
2017-07-24T02:15:54.429Z,89.5
2017-07-24T02:16:35.521Z,89.6
2017-07-24T02:17:16.536Z,89.3
2017-07-24T02:17:57.552Z,89.8
2017-07-24T02:18:38.463Z,89.9
2017-07-24T02:19:19.375Z,89.8
2017-07-24T02:20:00.365Z,89.8
2017-07-24T02:20:41.458Z,90.1
2017-07-24T02:21:22.350Z,89.8
2017-07-24T02:22:03.337Z,89.9
2017-07-24T02:22:44.126Z,89.9
2017-07-24T02:23:24.912Z,90.4
2017-07-24T02:24:05.903Z,90.0
2017-07-24T02:24:48.599Z,89.9
2017-07-24T02:25:29.607Z,90.0
2017-07-24T02:26:10.495Z,89.9
2017-07-24T02:26:51.287Z,89.8
2017-07-24T02:27:32.280Z,89.9
2017-07-24T02:28:13.167Z,89.9
2017-07-24T02:28:53.963Z,89.7
2017-07-24T02:29:34.850Z,89.9
2017-07-24T02:30:15.796Z,89.8
2017-07-24T02:30:56.982Z,89.9
2017-07-24T02:31:37.784Z,89.9
2017-07-24T02:32:18.877Z,89.3
2017-07-24T02:32:59.663Z,89.2
2017-07-24T02:33:40.460Z,89.5
2017-07-24T02:34:21.465Z,89.8
2017-07-24T02:35:02.473Z,89.9
2017-07-24T02:35:43.858Z,90.2
2017-07-24T02:36:24.853Z,90.3
2017-07-24T02:37:05.850Z,90.0
2017-07-24T02:37:46.742Z,89.9
2017-07-24T02:38:27.843Z,89.6
2017-07-24T02:39:08.935Z,89.9
2017-07-24T02:39:49.818Z,89.7
2017-07-24T02:40:30.615Z,90.5
2017-07-24T02:41:11.422Z,90.5
2017-07-24T02:41:52.307Z,89.6
2017-07-24T02:42:33.584Z,89.9
2017-07-24T02:43:14.694Z,89.8
2017-07-24T02:43:55.792Z,89.9
2017-07-24T02:44:36.789Z,90.1
2017-07-24T02:45:17.794Z,89.9
2017-07-24T02:46:00.181Z,89.9
2017-07-24T02:46:41.170Z,90.0
2017-07-24T02:47:22.063Z,89.5
2017-07-24T02:48:02.961Z,89.7
2017-07-24T02:48:43.847Z,90.0
2017-07-24T02:49:24.845Z,89.8
2017-07-24T02:50:05.876Z,89.6
2017-07-24T02:50:46.969Z,89.7
2017-07-24T02:51:27.964Z,90.1
2017-07-24T02:52:08.853Z,89.3
2017-07-24T02:52:49.952Z,89.3
2017-07-24T02:53:30.942Z,89.3
2017-07-24T02:54:11.936Z,89.5
2017-07-24T02:54:52.937Z,89.4
2017-07-24T02:55:33.726Z,89.3
2017-07-24T02:56:14.533Z,89.4
2017-07-24T02:56:55.553Z,89.9
2017-07-24T02:57:36.828Z,89.4
2017-07-24T02:58:18.014Z,89.4
2017-07-24T02:58:59.013Z,89.3
2017-07-24T02:59:39.905Z,89.5
2017-07-24T03:00:20.894Z,89.4
2017-07-24T03:01:01.685Z,89.8
2017-07-24T03:01:42.786Z,89.3
2017-07-24T03:02:23.987Z,89.2
2017-07-24T03:03:05.174Z,89.1
2017-07-24T03:03:46.067Z,89.5
2017-07-24T03:04:26.960Z,89.3
2017-07-24T03:05:07.953Z,89.4
2017-07-24T03:05:48.749Z,89.8
2017-07-24T03:06:29.639Z,89.4
2017-07-24T03:07:10.574Z,89.5
2017-07-24T03:07:51.560Z,89.8
2017-07-24T03:08:32.460Z,89.3
2017-07-24T03:09:13.460Z,89.6
2017-07-24T03:09:54.447Z,89.4
2017-07-24T03:10:35.348Z,89.3
2017-07-24T03:11:16.234Z,89.9
2017-07-24T03:11:56.955Z,89.6
2017-07-24T03:12:40.444Z,89.4
2017-07-24T03:13:21.432Z,89.5
2017-07-24T03:14:02.323Z,89.6
2017-07-24T03:14:43.218Z,89.6
2017-07-24T03:15:24.129Z,89.5
2017-07-24T03:16:05.039Z,89.8
2017-07-24T03:16:46.035Z,89.9
2017-07-24T03:17:26.860Z,89.8
2017-07-24T03:18:07.754Z,90.0
2017-07-24T03:18:48.440Z,90.1
2017-07-24T03:19:29.537Z,90.0
2017-07-24T03:20:10.540Z,90.0
2017-07-24T03:20:51.527Z,89.9
2017-07-24T03:21:32.938Z,89.9
2017-07-24T03:22:13.818Z,89.9
2017-07-24T03:22:54.711Z,90.1
2017-07-24T03:23:35.619Z,89.6
2017-07-24T03:24:16.620Z,89.9
2017-07-24T03:24:57.728Z,90.1
2017-07-24T03:25:38.719Z,89.9
2017-07-24T03:26:19.728Z,90.1
2017-07-24T03:27:00.512Z,90.4
2017-07-24T03:27:41.409Z,89.6
2017-07-24T03:28:22.296Z,89.9
2017-07-24T03:29:03.192Z,89.7
2017-07-24T03:29:44.398Z,90.0
2017-07-24T03:30:25.193Z,90.2
2017-07-24T03:31:06.005Z,90.3
2017-07-24T03:31:47.181Z,90.5
2017-07-24T03:32:28.307Z,90.5
2017-07-24T03:33:09.205Z,90.1
2017-07-24T03:33:50.094Z,90.1
2017-07-24T03:34:30.891Z,90.2
2017-07-24T03:35:11.800Z,90.7
2017-07-24T03:35:52.592Z,90.3
2017-07-24T03:36:33.490Z,90.7
2017-07-24T03:37:14.286Z,90.7
2017-07-24T03:37:55.380Z,90.5
2017-07-24T03:38:36.284Z,90.7
2017-07-24T03:39:17.216Z,90.5
2017-07-24T03:39:58.099Z,91.1
2017-07-24T03:40:39.002Z,90.6
2017-07-24T03:41:19.991Z,91.0
2017-07-24T03:42:00.891Z,91.0
2017-07-24T03:42:41.802Z,90.8
2017-07-24T03:43:22.576Z,91.0
2017-07-24T03:44:03.764Z,90.5
2017-07-24T03:44:44.568Z,90.0
2017-07-24T03:45:25.362Z,91.2
2017-07-24T03:46:06.360Z,90.5
2017-07-24T03:46:47.259Z,90.4
2017-07-24T03:47:28.350Z,90.9
2017-07-24T03:48:09.248Z,91.0
2017-07-24T03:48:50.243Z,91.1
2017-07-24T03:49:31.156Z,90.5
2017-07-24T03:50:12.346Z,91.0
2017-07-24T03:50:53.242Z,91.1
2017-07-24T03:51:34.246Z,90.2
2017-07-24T03:52:15.042Z,90.7
2017-07-24T03:52:57.138Z,90.3
2017-07-24T03:53:38.043Z,90.9
2017-07-24T03:54:18.943Z,91.0
2017-07-24T03:54:59.945Z,90.7
2017-07-24T03:55:40.932Z,90.9
2017-07-24T03:56:21.929Z,91.3
2017-07-24T03:57:02.719Z,90.9
2017-07-24T03:57:43.614Z,91.0
2017-07-24T03:58:24.646Z,90.2
2017-07-24T03:59:05.540Z,90.9
2017-07-24T03:59:46.428Z,90.9
2017-07-24T04:00:27.746Z,90.9
2017-07-24T04:01:09.049Z,91.1
2017-07-24T04:01:50.147Z,91.1
2017-07-24T04:02:31.060Z,90.7
2017-07-24T04:03:12.066Z,91.3
2017-07-24T04:03:53.159Z,91.3
2017-07-24T04:04:34.268Z,91.1
2017-07-24T04:05:15.363Z,90.8
2017-07-24T04:05:56.256Z,91.1
2017-07-24T04:06:37.496Z,91.5
2017-07-24T04:07:18.683Z,90.6
2017-07-24T04:07:59.586Z,90.9
2017-07-24T04:08:40.674Z,91.1
2017-07-24T04:09:21.589Z,90.9
2017-07-24T04:10:02.479Z,91.0
2017-07-24T04:10:43.273Z,91.0
2017-07-24T04:11:24.266Z,90.9
2017-07-24T04:12:05.282Z,91.1
2017-07-24T04:12:46.373Z,90.4
2017-07-24T04:13:27.371Z,90.5
2017-07-24T04:14:08.466Z,90.2
2017-07-24T04:14:49.361Z,90.2
2017-07-24T04:15:30.165Z,90.4
2017-07-24T04:16:11.294Z,90.7
2017-07-24T04:16:52.297Z,90.5
2017-07-24T04:17:33.401Z,90.2
2017-07-24T04:18:14.399Z,90.2
2017-07-24T04:18:55.396Z,90.6
2017-07-24T04:19:36.599Z,90.6
2017-07-24T04:20:17.606Z,91.0
2017-07-24T04:20:58.607Z,90.5
2017-07-24T04:21:39.554Z,90.5
2017-07-24T04:22:20.455Z,90.5
2017-07-24T04:23:01.543Z,91.0
2017-07-24T04:23:42.577Z,90.9
2017-07-24T04:24:23.768Z,90.8
2017-07-24T04:25:04.678Z,90.7
2017-07-24T04:25:45.767Z,90.4
2017-07-24T04:26:26.765Z,90.8
2017-07-24T04:27:07.659Z,90.5
2017-07-24T04:27:48.657Z,90.8
2017-07-24T04:28:29.760Z,90.5
2017-07-24T04:29:10.746Z,90.8
2017-07-24T04:29:51.839Z,90.7
2017-07-24T04:30:32.836Z,90.9
2017-07-24T04:31:13.835Z,90.5
2017-07-24T04:31:54.828Z,90.3
2017-07-24T04:32:35.920Z,90.6
2017-07-24T04:33:17.027Z,90.4
2017-07-24T04:33:58.014Z,90.5
2017-07-24T04:34:39.110Z,90.3
2017-07-24T04:35:20.221Z,90.5
2017-07-24T04:36:01.113Z,90.4
2017-07-24T04:36:42.029Z,90.5
2017-07-24T04:37:23.320Z,90.4
2017-07-24T04:38:04.422Z,90.2
2017-07-24T04:38:45.619Z,90.3
2017-07-24T04:39:26.717Z,90.2
2017-07-24T04:40:07.612Z,89.9
2017-07-24T04:40:48.605Z,89.7
2017-07-24T04:41:29.812Z,90.4
2017-07-24T04:42:11.310Z,90.2
2017-07-24T04:42:53.407Z,89.9
2017-07-24T04:43:34.495Z,89.9
2017-07-24T04:44:15.697Z,89.8
2017-07-24T04:44:56.611Z,90.3
2017-07-24T04:45:37.409Z,89.9
2017-07-24T04:46:18.622Z,90.1
2017-07-24T04:46:59.619Z,90.0
2017-07-24T04:47:40.416Z,90.1
2017-07-24T04:48:21.307Z,90.3
2017-07-24T04:49:02.301Z,90.5
2017-07-24T04:49:43.491Z,90.0
2017-07-24T04:50:24.412Z,90.0
2017-07-24T04:51:05.310Z,89.9
2017-07-24T04:51:46.009Z,90.0
2017-07-24T04:52:27.108Z,90.5
2017-07-24T04:53:08.093Z,89.7
2017-07-24T04:53:49.092Z,89.9
2017-07-24T04:54:30.185Z,89.9
2017-07-24T04:55:11.378Z,89.9
2017-07-24T04:55:52.376Z,89.9
2017-07-24T04:56:33.367Z,90.4
2017-07-24T04:57:14.266Z,89.8
2017-07-24T04:57:55.365Z,89.7
2017-07-24T04:58:36.356Z,90.0
2017-07-24T04:59:17.557Z,90.0
2017-07-24T04:59:58.546Z,90.1
2017-07-24T05:00:39.345Z,89.6
2017-07-24T05:01:20.528Z,90.0
2017-07-24T05:02:01.624Z,89.9
2017-07-24T05:02:42.614Z,89.7
2017-07-24T05:03:23.506Z,90.8
2017-07-24T05:04:04.501Z,89.9
2017-07-24T05:04:47.701Z,90.1
2017-07-24T05:05:28.990Z,90.0
2017-07-24T05:06:10.820Z,90.1
2017-07-24T05:06:51.918Z,89.7
2017-07-24T05:07:32.709Z,89.6
2017-07-24T05:08:13.604Z,90.0
2017-07-24T05:08:55.032Z,89.8
2017-07-24T05:09:35.821Z,89.7
2017-07-24T05:10:16.934Z,89.7
2017-07-24T05:10:58.128Z,89.4
2017-07-24T05:11:39.330Z,90.0
2017-07-24T05:12:20.434Z,90.1
2017-07-24T05:13:01.525Z,90.0
2017-07-24T05:13:42.550Z,89.7
2017-07-24T05:14:23.651Z,89.9
2017-07-24T05:15:04.852Z,90.0
2017-07-24T05:15:47.021Z,89.4
2017-07-24T05:16:28.330Z,89.6
2017-07-24T05:17:09.427Z,89.5
2017-07-24T05:17:50.221Z,89.7
2017-07-24T05:18:31.319Z,89.7
2017-07-24T05:19:12.320Z,89.5
2017-07-24T05:19:53.212Z,90.1
2017-07-24T05:20:34.304Z,89.4
2017-07-24T05:21:15.400Z,89.6
2017-07-24T05:21:56.492Z,89.6
2017-07-24T05:22:37.390Z,90.2
2017-07-24T05:23:18.386Z,89.6
2017-07-24T05:23:59.382Z,89.3
2017-07-24T05:24:40.283Z,89.5
2017-07-24T05:25:21.183Z,89.4
2017-07-24T05:26:02.193Z,89.5
2017-07-24T05:26:43.184Z,89.7
2017-07-24T05:27:24.190Z,89.1
2017-07-24T05:28:05.309Z,89.4
2017-07-24T05:28:46.413Z,89.8
2017-07-24T05:29:27.214Z,89.4
2017-07-24T05:30:08.218Z,89.4
2017-07-24T05:30:50.204Z,88.9
2017-07-24T05:31:30.995Z,89.1
2017-07-24T05:32:12.207Z,89.1
2017-07-24T05:32:53.305Z,89.2
2017-07-24T05:33:34.193Z,89.2
2017-07-24T05:34:15.295Z,89.6
2017-07-24T05:34:56.412Z,89.3
2017-07-24T05:35:37.406Z,89.3
2017-07-24T05:36:18.609Z,89.5
2017-07-24T05:36:59.502Z,89.1
2017-07-24T05:37:40.694Z,89.5
2017-07-24T05:38:21.587Z,89.5
2017-07-24T05:39:02.382Z,89.4
2017-07-24T05:39:43.482Z,89.4
2017-07-24T05:40:24.483Z,89.5
2017-07-24T05:41:05.276Z,89.6
2017-07-24T05:41:46.372Z,89.7
2017-07-24T05:42:28.160Z,89.5
2017-07-24T05:43:09.886Z,89.5
2017-07-24T05:43:52.843Z,89.2
2017-07-24T05:44:35.001Z,89.0
2017-07-24T05:45:17.690Z,89.3
2017-07-24T05:46:00.025Z,89.5
2017-07-24T05:46:41.430Z,89.3
2017-07-24T05:47:23.580Z,89.4
2017-07-24T05:48:06.055Z,89.8
2017-07-24T05:48:48.235Z,89.3
2017-07-24T05:49:30.412Z,88.9
2017-07-24T05:50:12.866Z,89.7
2017-07-24T05:50:55.173Z,89.6
2017-07-24T05:51:36.365Z,89.0
2017-07-24T05:52:17.360Z,89.3
2017-07-24T05:52:58.392Z,89.5
2017-07-24T05:53:39.460Z,89.5
2017-07-24T05:54:20.382Z,89.8
2017-07-24T05:55:01.372Z,89.8
2017-07-24T05:55:42.461Z,88.9
2017-07-24T05:56:23.458Z,89.7
2017-07-24T05:57:04.258Z,89.2
2017-07-24T05:57:45.263Z,89.4
2017-07-24T05:58:26.256Z,89.2
2017-07-24T05:59:07.349Z,89.3
2017-07-24T05:59:48.249Z,89.5
2017-07-24T06:00:29.153Z,89.5
2017-07-24T06:01:10.367Z,89.4
2017-07-24T06:01:51.356Z,89.6
2017-07-24T06:02:32.256Z,89.3
2017-07-24T06:03:13.255Z,89.2
2017-07-24T06:03:54.553Z,89.5
2017-07-24T06:04:35.662Z,89.4
2017-07-24T06:05:16.555Z,89.4
2017-07-24T06:05:57.596Z,89.0
2017-07-24T06:06:38.720Z,89.3
2017-07-24T06:07:19.624Z,89.3
2017-07-24T06:08:00.545Z,89.3
2017-07-24T06:08:41.547Z,88.9
2017-07-24T06:09:22.649Z,88.7
2017-07-24T06:10:03.743Z,88.8
2017-07-24T06:10:44.742Z,88.7
2017-07-24T06:11:25.743Z,88.7
2017-07-24T06:12:06.639Z,88.7
2017-07-24T06:12:47.643Z,88.5
2017-07-24T06:13:28.850Z,88.7
2017-07-24T06:14:09.849Z,88.7
2017-07-24T06:14:52.296Z,88.9
2017-07-24T06:15:33.192Z,88.9
2017-07-24T06:16:14.081Z,88.9
2017-07-24T06:16:54.874Z,88.9
2017-07-24T06:17:35.774Z,88.5
2017-07-24T06:18:16.571Z,88.7
2017-07-24T06:18:57.589Z,88.6
2017-07-24T06:19:38.506Z,88.6
2017-07-24T06:20:19.507Z,88.6
2017-07-24T06:21:00.503Z,88.7
2017-07-24T06:21:41.704Z,88.7
2017-07-24T06:22:22.899Z,88.8
2017-07-24T06:23:03.898Z,88.5
2017-07-24T06:23:44.999Z,88.7
2017-07-24T06:24:26.195Z,88.4
2017-07-24T06:25:07.096Z,88.5
2017-07-24T06:25:48.199Z,88.8
2017-07-24T06:26:29.208Z,88.1
2017-07-24T06:27:10.106Z,88.2
2017-07-24T06:27:51.197Z,88.2
2017-07-24T06:28:32.101Z,88.4
2017-07-24T06:29:13.196Z,88.0
2017-07-24T06:29:54.196Z,88.3
2017-07-24T06:30:35.499Z,88.3
2017-07-24T06:31:16.589Z,88.3
2017-07-24T06:31:57.897Z,87.9
2017-07-24T06:32:38.897Z,87.7
2017-07-24T06:33:19.898Z,87.8
2017-07-24T06:34:00.708Z,87.7
2017-07-24T06:34:41.807Z,87.7
2017-07-24T06:35:22.799Z,87.7
2017-07-24T06:36:04.097Z,87.9
2017-07-24T06:36:45.193Z,88.0
2017-07-24T06:37:26.291Z,87.9
2017-07-24T06:38:07.297Z,88.0
2017-07-24T06:38:48.500Z,88.1
2017-07-24T06:39:29.696Z,87.5
2017-07-24T06:40:10.694Z,87.7
2017-07-24T06:40:51.693Z,87.7
2017-07-24T06:41:32.583Z,87.8
2017-07-24T06:42:13.681Z,87.6
2017-07-24T06:42:54.771Z,87.5
2017-07-24T06:43:35.770Z,87.5
2017-07-24T06:44:16.980Z,87.5
2017-07-24T06:44:58.170Z,87.5
2017-07-24T06:45:39.184Z,87.2
2017-07-24T06:46:20.085Z,87.3
2017-07-24T06:47:01.079Z,87.6
2017-07-24T06:47:41.876Z,87.3
2017-07-24T06:48:22.770Z,87.1
2017-07-24T06:49:03.670Z,87.3
2017-07-24T06:49:45.190Z,87.2
2017-07-24T06:50:26.594Z,87.4
2017-07-24T06:51:07.797Z,87.2
2017-07-24T06:51:48.598Z,87.3
2017-07-24T06:52:29.505Z,87.1
2017-07-24T06:53:10.492Z,87.2
2017-07-24T06:53:51.397Z,87.5
2017-07-24T06:54:32.700Z,87.1
2017-07-24T06:55:13.908Z,86.9
2017-07-24T06:55:54.803Z,87.2
2017-07-24T06:56:35.697Z,87.2
2017-07-24T06:57:16.797Z,87.1
2017-07-24T06:57:57.697Z,87.2
2017-07-24T06:58:38.698Z,87.1
2017-07-24T06:59:19.888Z,87.1
2017-07-24T07:00:00.879Z,87.1
2017-07-24T07:00:42.400Z,86.9
2017-07-24T07:01:23.392Z,86.8
2017-07-24T07:02:04.397Z,87.0
2017-07-24T07:02:45.798Z,87.1
2017-07-24T07:03:26.790Z,87.2
2017-07-24T07:04:07.789Z,87.1
2017-07-24T07:04:48.991Z,87.4
2017-07-24T07:05:29.987Z,87.0
2017-07-24T07:06:10.788Z,87.3
2017-07-24T07:06:51.786Z,87.1
2017-07-24T07:07:32.686Z,87.1
2017-07-24T07:08:13.770Z,87.1
2017-07-24T07:08:54.667Z,87.3
2017-07-24T07:09:35.683Z,86.9
2017-07-24T07:10:16.780Z,87.4
2017-07-24T07:10:57.775Z,87.0
2017-07-24T07:11:38.968Z,87.3
2017-07-24T07:12:19.962Z,86.8
2017-07-24T07:13:00.765Z,86.9
2017-07-24T07:13:41.900Z,87.1
2017-07-24T07:14:23.372Z,86.8
2017-07-24T07:15:04.573Z,86.9
2017-07-24T07:15:45.573Z,87.2
2017-07-24T07:16:26.591Z,87.3
2017-07-24T07:17:07.798Z,86.9
2017-07-24T07:17:49.508Z,87.0
2017-07-24T07:18:30.399Z,87.0
2017-07-24T07:19:11.513Z,87.5
2017-07-24T07:19:52.707Z,86.8
2017-07-24T07:20:33.698Z,87.5
2017-07-24T07:21:14.800Z,87.0
2017-07-24T07:21:55.693Z,87.3
2017-07-24T07:22:36.788Z,87.2
2017-07-24T07:23:17.794Z,87.2
2017-07-24T07:23:58.790Z,87.2
2017-07-24T07:24:39.688Z,87.3
2017-07-24T07:25:20.587Z,87.2
2017-07-24T07:26:01.391Z,87.2
2017-07-24T07:26:42.480Z,86.9
2017-07-24T07:27:23.579Z,87.2
2017-07-24T07:28:04.672Z,87.2
2017-07-24T07:28:45.772Z,87.5
2017-07-24T07:29:26.766Z,87.2
2017-07-24T07:30:07.767Z,86.9
2017-07-24T07:30:49.569Z,86.8
2017-07-24T07:31:30.465Z,87.4
2017-07-24T07:32:11.378Z,87.1
2017-07-24T07:32:52.476Z,87.1
2017-07-24T07:33:33.669Z,86.8
2017-07-24T07:34:14.869Z,86.2
2017-07-24T07:34:57.848Z,87.3
2017-07-24T07:35:39.055Z,86.5
2017-07-24T07:36:19.859Z,86.7
2017-07-24T07:37:00.855Z,87.5
2017-07-24T07:37:41.852Z,86.5
2017-07-24T07:38:22.843Z,86.6
2017-07-24T07:39:03.851Z,87.5
2017-07-24T07:39:44.749Z,86.5
2017-07-24T07:40:25.965Z,86.6
2017-07-24T07:41:06.869Z,86.6
2017-07-24T07:41:47.871Z,86.5
2017-07-24T07:42:28.969Z,86.6
2017-07-24T07:43:09.963Z,87.3
2017-07-24T07:43:51.759Z,87.5
2017-07-24T07:44:32.858Z,87.3
2017-07-24T07:45:13.664Z,87.3
2017-07-24T07:45:54.664Z,87.1
2017-07-24T07:46:36.067Z,87.2
2017-07-24T07:47:17.062Z,87.1
2017-07-24T07:47:58.160Z,87.3
2017-07-24T07:48:39.252Z,87.4
2017-07-24T07:49:20.266Z,87.5
2017-07-24T07:50:01.647Z,87.3
2017-07-24T07:50:42.444Z,87.5
2017-07-24T07:51:23.645Z,87.5
2017-07-24T07:52:04.939Z,87.0
2017-07-24T07:52:45.955Z,87.4
2017-07-24T07:53:26.754Z,87.2
2017-07-24T07:54:07.747Z,87.1
2017-07-24T07:54:48.863Z,87.4
2017-07-24T07:55:30.157Z,87.3
2017-07-24T07:56:11.354Z,87.5
2017-07-24T07:56:52.451Z,87.1
2017-07-24T07:57:33.256Z,87.1
2017-07-24T07:58:14.555Z,87.0
2017-07-24T07:58:55.572Z,86.7
2017-07-24T07:59:36.594Z,87.2
2017-07-24T08:00:17.578Z,87.0
2017-07-24T08:00:58.683Z,87.2
2017-07-24T08:01:39.580Z,87.1
2017-07-24T08:02:20.577Z,87.2
2017-07-24T08:03:01.690Z,87.2
2017-07-24T08:03:42.879Z,87.2
2017-07-24T08:04:23.781Z,87.6
2017-07-24T08:05:04.995Z,87.1
2017-07-24T08:05:46.195Z,87.0
2017-07-24T08:06:27.015Z,86.9
2017-07-24T08:07:07.914Z,87.4
2017-07-24T08:07:48.817Z,87.1
2017-07-24T08:08:29.702Z,87.5
2017-07-24T08:09:11.312Z,87.0
2017-07-24T08:09:52.404Z,87.2
2017-07-24T08:10:33.401Z,87.4
2017-07-24T08:11:14.400Z,87.2
2017-07-24T08:11:55.303Z,87.1
2017-07-24T08:12:36.301Z,87.2
2017-07-24T08:13:17.605Z,87.3
2017-07-24T08:13:58.512Z,87.3
2017-07-24T08:14:39.397Z,87.5
2017-07-24T08:15:20.407Z,87.5
2017-07-24T08:16:01.321Z,87.5
2017-07-24T08:16:42.728Z,87.5
2017-07-24T08:17:23.624Z,87.4
2017-07-24T08:18:04.722Z,87.5
2017-07-24T08:18:45.622Z,87.2
2017-07-24T08:19:26.630Z,86.5
2017-07-24T08:20:07.632Z,87.5
2017-07-24T08:20:48.616Z,86.5
2017-07-24T08:21:29.820Z,86.9
2017-07-24T08:22:10.916Z,87.5
2017-07-24T08:22:51.807Z,86.6
2017-07-24T08:23:32.814Z,87.5
2017-07-24T08:24:13.809Z,87.4
2017-07-24T08:24:55.636Z,87.2
2017-07-24T08:25:36.936Z,87.3
2017-07-24T08:26:17.928Z,87.7
2017-07-24T08:26:58.932Z,86.9
2017-07-24T08:27:40.136Z,87.4
2017-07-24T08:28:21.239Z,86.7
2017-07-24T08:29:02.048Z,86.3
2017-07-24T08:29:43.145Z,87.4
2017-07-24T08:30:24.241Z,87.4
2017-07-24T08:31:05.242Z,87.4
2017-07-24T08:31:46.242Z,87.6
2017-07-24T08:32:27.040Z,87.4
2017-07-24T08:33:09.380Z,87.5
2017-07-24T08:33:50.389Z,86.9
2017-07-24T08:34:31.281Z,87.2
2017-07-24T08:35:13.207Z,87.2
2017-07-24T08:35:54.445Z,87.2
2017-07-24T08:36:35.448Z,87.1
2017-07-24T08:37:17.778Z,87.4
2017-07-24T08:37:59.165Z,87.2
2017-07-24T08:38:40.166Z,87.3
2017-07-24T08:39:21.220Z,87.3
2017-07-24T08:40:02.128Z,86.9
2017-07-24T08:40:43.329Z,87.3
2017-07-24T08:41:24.425Z,87.4
2017-07-24T08:42:05.217Z,87.3
2017-07-24T08:42:46.235Z,87.4
2017-07-24T08:43:27.126Z,87.2
2017-07-24T08:44:07.923Z,86.7
2017-07-24T08:44:51.477Z,86.5
2017-07-24T08:45:32.382Z,87.4
2017-07-24T08:46:13.482Z,87.1
2017-07-24T08:46:54.585Z,86.7
2017-07-24T08:47:35.486Z,87.4
2017-07-24T08:48:16.391Z,87.3
2017-07-24T08:48:57.493Z,86.7
2017-07-24T08:49:38.586Z,87.5
2017-07-24T08:50:19.488Z,87.5
2017-07-24T08:51:00.390Z,87.2
2017-07-24T08:51:41.179Z,86.5
2017-07-24T08:52:22.094Z,86.4
2017-07-24T08:53:03.256Z,86.8
2017-07-24T08:53:44.556Z,87.4
2017-07-24T08:54:25.553Z,87.1
2017-07-24T08:55:06.974Z,87.5
2017-07-24T08:55:47.986Z,87.5
2017-07-24T08:56:29.183Z,87.4
2017-07-24T08:57:10.381Z,86.9
2017-07-24T08:57:51.474Z,86.6
2017-07-24T08:58:32.714Z,86.5
2017-07-24T08:59:13.623Z,86.7
2017-07-24T08:59:54.712Z,87.5
2017-07-24T09:00:35.610Z,86.8
2017-07-24T09:01:16.717Z,86.8
2017-07-24T09:01:57.813Z,86.8
2017-07-24T09:02:39.105Z,86.3
2017-07-24T09:03:20.000Z,86.7
2017-07-24T09:04:00.900Z,86.7
2017-07-24T09:04:42.100Z,87.4
2017-07-24T09:05:23.200Z,86.9
2017-07-24T09:06:04.099Z,86.5
2017-07-24T09:06:45.308Z,86.9